SAN weather

San Diego International Airport
San Diego, California, United States

Public forecast

Using degrees Fahrenheit for public forecast. Weather courtesy of forecast.io.

METAR (pilot weather report)

Retrieved 2018/04/22 08:51 UTC (1 hour ago):

KSAN 220851Z 00000KT 10SM SCT250 16/12 A2998 RMK AO2 SLP150 T01560122 57010

TAF (pilot weather forecast)

Retrieved 2018/04/22 06:22 UTC (4 hours ago):

TAF KSAN 220520Z 2206/2312 VRB04KT P6SM FEW007 SCT250 FM221200 VRB04KT 6SM BR VCFG SCT004 FM221500 VRB04KT P6SM FEW005 SCT250 FM221900 29011KT P6SM SCT250 FM230200 VRB04KT P6SM SCT250 FM230600 VRB04KT P6SM BKN008